createdAt,value
2024-04-30T00:00:07.362Z,101369.00
2024-04-30T00:02:37.004Z,101375.31
2024-04-30T00:05:04.652Z,101375.63
2024-04-30T00:07:35.471Z,101374.91
2024-04-30T00:10:02.579Z,101368.91
2024-04-30T00:12:34.781Z,101370.03
2024-04-30T00:15:03.222Z,101372.03
2024-04-30T00:17:32.983Z,101371.19
2024-04-30T00:20:00.266Z,101373.16
2024-04-30T00:22:30.338Z,101367.00
2024-04-30T00:24:57.586Z,101374.16
2024-04-30T00:27:26.985Z,101373.31
2024-04-30T00:29:56.557Z,101373.47
2024-04-30T00:32:26.318Z,101382.75
2024-04-30T00:34:56.384Z,101386.38
2024-04-30T00:37:26.145Z,101379.38
2024-04-30T00:39:53.272Z,101379.69
2024-04-30T00:42:22.958Z,101376.31
2024-04-30T00:44:51.433Z,101374.09
2024-04-30T00:47:23.808Z,101371.88
2024-04-30T00:49:50.969Z,101370.50
2024-04-30T00:52:20.904Z,101367.13
2024-04-30T00:54:48.177Z,101370.09
2024-04-30T00:57:18.372Z,101360.75
2024-04-30T00:59:47.052Z,101354.19
2024-04-30T01:02:17.080Z,101356.00
2024-04-30T01:04:57.261Z,101351.75
2024-04-30T01:07:26.908Z,101352.91
2024-04-30T01:09:53.974Z,101350.25
2024-04-30T01:12:25.396Z,101354.84
2024-04-30T01:14:52.714Z,101348.69
2024-04-30T01:17:22.467Z,101347.03
2024-04-30T01:19:52.177Z,101344.50
2024-04-30T01:22:22.552Z,101347.47
2024-04-30T01:24:52.234Z,101346.78
2024-04-30T01:27:22.201Z,101339.91
2024-04-30T01:29:49.168Z,101346.25
2024-04-30T01:32:19.008Z,101339.22
2024-04-30T01:34:46.203Z,101336.03
2024-04-30T01:37:15.621Z,101332.13
2024-04-30T01:39:42.685Z,101327.69
2024-04-30T01:42:14.996Z,101334.50
2024-04-30T01:44:42.689Z,101321.34
2024-04-30T01:47:12.289Z,101321.78
2024-04-30T01:49:39.416Z,101329.09
2024-04-30T01:52:10.045Z,101323.06
2024-04-30T01:54:37.046Z,101322.38
2024-04-30T01:57:07.178Z,101315.66
2024-04-30T01:59:44.326Z,101325.88
2024-04-30T02:02:11.596Z,101317.34
2024-04-30T02:04:46.266Z,101319.47
2024-04-30T02:07:17.095Z,101318.94
2024-04-30T02:09:46.727Z,101315.88
2024-04-30T02:12:13.687Z,101322.28
2024-04-30T02:14:46.056Z,101313.59
2024-04-30T02:17:13.080Z,101305.25
2024-04-30T02:19:42.912Z,101304.13
2024-04-30T02:22:09.931Z,101302.16
2024-04-30T02:24:39.598Z,101301.78
2024-04-30T02:27:06.570Z,101299.50
2024-04-30T02:29:36.168Z,101290.16
2024-04-30T02:32:25.901Z,101289.59
2024-04-30T02:34:55.625Z,101295.16
2024-04-30T02:37:25.212Z,101286.63
2024-04-30T02:39:55.014Z,101288.72
2024-04-30T02:42:21.949Z,101274.72
2024-04-30T02:44:51.616Z,101279.06
2024-04-30T02:47:21.441Z,101279.06
2024-04-30T02:49:51.225Z,101273.22
2024-04-30T02:52:18.206Z,101273.34
2024-04-30T02:54:47.940Z,101267.47
2024-04-30T02:57:15.021Z,101257.81
2024-04-30T02:59:44.710Z,101262.47
2024-04-30T03:02:11.692Z,101271.41
2024-04-30T03:04:46.839Z,101270.69
2024-04-30T03:07:13.900Z,101264.69
2024-04-30T03:09:43.550Z,101271.94
2024-04-30T03:12:10.971Z,101258.78
2024-04-30T03:14:40.698Z,101258.97
2024-04-30T03:17:07.715Z,101261.63
2024-04-30T03:19:37.516Z,101258.25
2024-04-30T03:22:07.425Z,101256.56
2024-04-30T03:24:37.032Z,101259.94
2024-04-30T03:27:04.764Z,101257.16
2024-04-30T03:29:34.342Z,101266.94
2024-04-30T03:32:01.543Z,101258.97
2024-04-30T03:34:31.294Z,101264.41
2024-04-30T03:37:01.088Z,101259.94
2024-04-30T03:39:33.608Z,101260.91
2024-04-30T03:42:03.249Z,101273.22
2024-04-30T03:44:32.895Z,101277.53
2024-04-30T03:47:02.678Z,101267.75
2024-04-30T03:49:32.584Z,101274.19
2024-04-30T03:51:59.758Z,101268.03
2024-04-30T03:54:29.799Z,101263.56
2024-04-30T03:56:59.428Z,101258.97
2024-04-30T03:59:29.239Z,101256.31
2024-04-30T04:01:56.207Z,101259.94
2024-04-30T04:04:25.952Z,101254.88
2024-04-30T04:06:53.195Z,101259.09
2024-04-30T04:09:23.255Z,101252.22
2024-04-30T04:12:08.798Z,101254.19
2024-04-30T04:14:51.601Z,101255.16
2024-04-30T04:17:22.995Z,101259.22
2024-04-30T04:19:52.889Z,101246.91
2024-04-30T04:22:22.578Z,101253.22
2024-04-30T04:24:49.914Z,101251.41
2024-04-30T04:27:19.352Z,101253.78
2024-04-30T04:29:49.347Z,101246.78
2024-04-30T04:32:19.128Z,101242.31
2024-04-30T04:34:46.164Z,101241.06
2024-04-30T04:37:15.963Z,101239.25
2024-04-30T04:39:43.131Z,101238.41
2024-04-30T04:42:12.746Z,101236.28
2024-04-30T04:44:42.442Z,101237.00
2024-04-30T04:47:13.267Z,101236.88
2024-04-30T04:49:42.938Z,101232.13
2024-04-30T04:52:10.076Z,101234.47
2024-04-30T04:54:39.731Z,101235.06
2024-04-30T04:57:06.676Z,101231.25
2024-04-30T04:59:36.723Z,101231.00
2024-04-30T05:02:04.786Z,101240.38
2024-04-30T05:04:37.143Z,101233.06
2024-04-30T05:07:04.635Z,101232.09
2024-04-30T05:09:34.304Z,101237.81
2024-04-30T05:12:01.470Z,101235.75
2024-04-30T05:14:31.192Z,101233.81
2024-04-30T05:16:58.264Z,101233.66
2024-04-30T05:19:27.975Z,101235.91
2024-04-30T05:21:57.975Z,101231.97
2024-04-30T05:24:27.865Z,101236.16
2024-04-30T05:26:55.110Z,101233.06
2024-04-30T05:29:24.508Z,101230.81
2024-04-30T05:31:51.698Z,101226.75
2024-04-30T05:34:21.410Z,101229.81
2024-04-30T05:36:48.651Z,101219.56
2024-04-30T05:39:20.888Z,101223.34
2024-04-30T05:41:48.071Z,101225.44
2024-04-30T05:44:18.565Z,101226.66
2024-04-30T05:46:45.636Z,101235.03
2024-04-30T05:49:15.952Z,101236.97
2024-04-30T05:51:43.511Z,101240.16
2024-04-30T05:54:13.518Z,101226.72
2024-04-30T05:56:43.111Z,101221.28
2024-04-30T05:59:14.170Z,101223.31
2024-04-30T06:01:41.190Z,101219.69
2024-04-30T06:04:11.611Z,101219.09
2024-04-30T06:06:38.805Z,101221.69
2024-04-30T06:09:08.847Z,101209.72
2024-04-30T06:11:38.501Z,101200.41
2024-04-30T06:14:08.416Z,101198.88
2024-04-30T06:16:38.197Z,101192.50
2024-04-30T06:19:05.835Z,101193.25
2024-04-30T06:21:37.928Z,101180.31
2024-04-30T06:24:07.110Z,101178.16
2024-04-30T06:26:36.810Z,101166.72
2024-04-30T06:29:03.947Z,101153.53
2024-04-30T06:31:36.206Z,101148.50
2024-04-30T06:34:03.567Z,101154.84
2024-04-30T06:36:33.807Z,101155.81
2024-04-30T06:39:00.811Z,101159.47
2024-04-30T06:41:30.505Z,101152.16
2024-04-30T06:43:57.621Z,101147.50
2024-04-30T06:46:27.311Z,101152.84
2024-04-30T06:48:57.107Z,101161.00
2024-04-30T06:51:29.673Z,101158.78
2024-04-30T06:53:56.665Z,101165.72
2024-04-30T06:56:26.498Z,101160.16
2024-04-30T06:58:54.981Z,101156.75
2024-04-30T07:01:24.654Z,101165.56
2024-04-30T07:03:51.624Z,101164.44
2024-04-30T07:06:23.995Z,101166.66
2024-04-30T07:08:51.077Z,101161.97
2024-04-30T07:11:21.005Z,101156.38
2024-04-30T07:13:48.225Z,101153.75
2024-04-30T07:16:17.863Z,101155.22
2024-04-30T07:18:47.020Z,101164.47
2024-04-30T07:21:16.653Z,101161.22
2024-04-30T07:23:46.360Z,101145.63
2024-04-30T07:26:18.833Z,101147.94
2024-04-30T07:28:46.626Z,101145.66
2024-04-30T07:31:16.507Z,101143.22
2024-04-30T07:33:43.760Z,101150.28
2024-04-30T07:36:13.542Z,101156.34
2024-04-30T07:38:40.825Z,101152.34
2024-04-30T07:41:13.083Z,101160.41
2024-04-30T07:43:40.040Z,101159.16
2024-04-30T07:46:09.801Z,101158.50
2024-04-30T07:48:36.841Z,101165.00
2024-04-30T07:51:06.918Z,101166.50
2024-04-30T07:53:33.920Z,101158.66
2024-04-30T07:56:03.619Z,101160.63
2024-04-30T07:58:33.403Z,101155.97
2024-04-30T08:01:04.090Z,101158.28
2024-04-30T08:03:31.450Z,101156.81
2024-04-30T08:06:10.344Z,101153.97
2024-04-30T08:08:41.933Z,101162.19
2024-04-30T08:11:11.592Z,101168.69
2024-04-30T08:13:43.028Z,101168.50
2024-04-30T08:16:14.671Z,101159.00
2024-04-30T08:18:41.832Z,101162.66
2024-04-30T08:21:11.616Z,101165.69
2024-04-30T08:23:38.707Z,101151.63
2024-04-30T08:26:09.538Z,101144.94
2024-04-30T08:28:36.781Z,101151.28
2024-04-30T08:31:09.591Z,101149.59
2024-04-30T08:33:36.670Z,101148.25
2024-04-30T08:36:06.122Z,101144.72
2024-04-30T08:38:33.252Z,101149.56
2024-04-30T08:41:02.881Z,101151.88
2024-04-30T08:43:31.169Z,101149.19
2024-04-30T08:46:03.097Z,101144.13
2024-04-30T08:48:34.316Z,101142.38
2024-04-30T08:51:04.930Z,101144.00
2024-04-30T08:53:37.318Z,101148.97
2024-04-30T08:56:12.628Z,101146.53
2024-04-30T08:58:40.122Z,101143.50
2024-04-30T09:01:10.547Z,101140.09
2024-04-30T09:03:43.416Z,101132.69
2024-04-30T09:06:13.335Z,101133.06
2024-04-30T09:08:40.391Z,101129.72
2024-04-30T09:11:11.331Z,101124.03
2024-04-30T09:13:41.505Z,101122.28
2024-04-30T09:16:12.326Z,101127.59
2024-04-30T09:18:52.308Z,101120.31
2024-04-30T09:21:30.652Z,101127.81
2024-04-30T09:24:06.731Z,101125.81
2024-04-30T09:26:37.078Z,101125.91
2024-04-30T09:29:04.092Z,101119.66
2024-04-30T09:31:41.389Z,101119.38
2024-04-30T09:34:11.233Z,101119.75
2024-04-30T09:36:41.609Z,101106.09
2024-04-30T09:39:09.823Z,101097.78
2024-04-30T09:41:41.365Z,101095.88
2024-04-30T09:44:08.405Z,101088.09
2024-04-30T09:46:38.788Z,101089.38
2024-04-30T09:49:08.981Z,101090.19
2024-04-30T09:51:45.583Z,101081.59
2024-04-30T09:54:18.617Z,101082.22
2024-04-30T09:56:48.849Z,101078.88
2024-04-30T09:59:18.639Z,101074.03
2024-04-30T10:01:47.116Z,101074.31
2024-04-30T10:04:17.228Z,101078.94
2024-04-30T10:06:51.660Z,101076.75
2024-04-30T10:09:22.651Z,101076.94
2024-04-30T10:11:50.166Z,101065.44
2024-04-30T10:14:20.032Z,101074.47
2024-04-30T10:16:58.836Z,101067.44
2024-04-30T10:19:28.933Z,101059.84
2024-04-30T10:21:58.632Z,101055.38
2024-04-30T10:24:28.411Z,101055.16
2024-04-30T10:26:55.398Z,101045.19
2024-04-30T10:29:25.039Z,101050.19
2024-04-30T10:31:53.164Z,101053.09
2024-04-30T10:34:24.333Z,101046.22
2024-04-30T10:36:52.579Z,101054.53
2024-04-30T10:39:31.195Z,101054.13
2024-04-30T10:41:58.222Z,101049.75
2024-04-30T10:44:28.115Z,101042.28
2024-04-30T10:46:57.764Z,101034.84
2024-04-30T10:49:27.539Z,101040.59
2024-04-30T10:51:54.670Z,101028.16
2024-04-30T10:54:24.521Z,101029.41
2024-04-30T10:56:54.310Z,101036.88
2024-04-30T10:59:29.280Z,101021.56
2024-04-30T11:01:59.143Z,101020.09
2024-04-30T11:04:32.523Z,101009.53
2024-04-30T11:07:00.129Z,101010.78
2024-04-30T11:09:29.998Z,101009.53
2024-04-30T11:12:02.486Z,101009.72
2024-04-30T11:14:32.566Z,101006.97
2024-04-30T11:16:59.722Z,101007.81
2024-04-30T11:19:29.333Z,100996.53
2024-04-30T11:21:56.495Z,100991.44
2024-04-30T11:24:26.168Z,100981.63
2024-04-30T11:26:53.444Z,100982.16
2024-04-30T11:29:34.988Z,100979.09
2024-04-30T11:32:06.359Z,100974.38
2024-04-30T11:34:36.376Z,100973.41
2024-04-30T11:37:04.433Z,100961.13
2024-04-30T11:39:34.053Z,100958.78
2024-04-30T11:42:12.587Z,100961.44
2024-04-30T11:44:50.595Z,100953.19
2024-04-30T11:47:17.608Z,100948.63
2024-04-30T11:49:47.358Z,100948.41
2024-04-30T11:52:14.530Z,100945.69
2024-04-30T11:54:44.375Z,100933.53
2024-04-30T11:57:11.501Z,100928.50
2024-04-30T11:59:41.804Z,100926.28
2024-04-30T12:02:11.780Z,100924.38
2024-04-30T12:04:41.537Z,100923.06
2024-04-30T12:07:08.770Z,100912.97
2024-04-30T12:09:38.550Z,100908.78
2024-04-30T12:12:06.404Z,100899.13
2024-04-30T12:14:36.322Z,100904.28
2024-04-30T12:17:03.491Z,100890.75
2024-04-30T12:19:36.152Z,100888.84
2024-04-30T12:22:03.399Z,100879.69
2024-04-30T12:24:33.057Z,100871.63
2024-04-30T12:27:00.045Z,100868.50
2024-04-30T12:29:29.808Z,100872.22
2024-04-30T12:31:56.751Z,100873.47
2024-04-30T12:34:26.346Z,100878.72
2024-04-30T12:36:57.081Z,100870.06
2024-04-30T12:39:28.202Z,100871.09
2024-04-30T12:41:55.259Z,100879.38
2024-04-30T12:44:25.011Z,100869.03
2024-04-30T12:46:52.013Z,100871.19
2024-04-30T12:49:22.923Z,100870.03
2024-04-30T12:51:49.947Z,100871.31
2024-04-30T12:54:22.325Z,100870.03
2024-04-30T12:56:49.097Z,100863.16
2024-04-30T12:59:19.346Z,100862.59
2024-04-30T13:01:46.323Z,100858.63
2024-04-30T13:04:16.261Z,100853.50
2024-04-30T13:06:43.397Z,100856.22
2024-04-30T13:09:13.063Z,100849.50
2024-04-30T13:11:43.360Z,100851.63
2024-04-30T13:14:15.042Z,100852.97
2024-04-30T13:16:42.482Z,100838.44
2024-04-30T13:19:12.425Z,100849.16
2024-04-30T13:21:40.874Z,100845.69
2024-04-30T13:24:14.403Z,100837.44
2024-04-30T13:26:44.112Z,100841.69
2024-04-30T13:29:13.819Z,100838.66
2024-04-30T13:31:46.827Z,100829.44
2024-04-30T13:34:16.877Z,100825.84
2024-04-30T13:36:44.199Z,100822.69
2024-04-30T13:39:15.565Z,100811.56
2024-04-30T13:41:45.508Z,100813.56
2024-04-30T13:44:15.101Z,100813.53
2024-04-30T13:46:42.758Z,100804.16
2024-04-30T13:49:12.431Z,100810.72
2024-04-30T13:51:39.403Z,100802.94
2024-04-30T13:54:09.531Z,100800.66
2024-04-30T13:56:36.540Z,100791.72
2024-04-30T13:59:09.497Z,100784.75
2024-04-30T14:01:36.644Z,100781.47
2024-04-30T14:04:06.345Z,100779.41
2024-04-30T14:06:33.563Z,100772.97
2024-04-30T14:09:03.174Z,100770.38
2024-04-30T14:11:30.317Z,100765.50
2024-04-30T14:14:05.653Z,100758.56
2024-04-30T14:16:36.278Z,100758.38
2024-04-30T14:19:06.211Z,100760.56
2024-04-30T14:21:33.197Z,100758.56
2024-04-30T14:24:03.097Z,100757.38
2024-04-30T14:26:30.204Z,100752.41
2024-04-30T14:28:59.797Z,100745.50
2024-04-30T14:31:26.890Z,100751.22
2024-04-30T14:33:59.188Z,100741.94
2024-04-30T14:36:34.877Z,100740.09
2024-04-30T14:39:10.249Z,100730.16
2024-04-30T14:41:38.306Z,100733.69
2024-04-30T14:44:08.187Z,100730.34
2024-04-30T14:46:35.284Z,100728.88
2024-04-30T14:49:08.194Z,100728.97
2024-04-30T14:51:35.555Z,100723.56
2024-04-30T14:54:05.577Z,100719.09
2024-04-30T14:56:33.941Z,100723.41
2024-04-30T14:59:04.620Z,100712.50
2024-04-30T15:01:31.649Z,100715.44
2024-04-30T15:04:02.003Z,100713.81
2024-04-30T15:06:31.750Z,100705.19
2024-04-30T15:09:01.360Z,100708.28
2024-04-30T15:11:28.654Z,100707.69
2024-04-30T15:13:58.583Z,100704.88
2024-04-30T15:16:25.632Z,100698.03
2024-04-30T15:18:55.443Z,100706.94
2024-04-30T15:21:22.599Z,100704.94
2024-04-30T15:23:55.005Z,100707.47
2024-04-30T15:26:24.723Z,100707.06
2024-04-30T15:28:51.826Z,100705.66
2024-04-30T15:31:24.147Z,100698.34
2024-04-30T15:33:51.402Z,100688.00
2024-04-30T15:36:22.195Z,100681.19
2024-04-30T15:38:51.944Z,100687.25
2024-04-30T15:41:24.989Z,100683.66
2024-04-30T15:43:52.367Z,100681.78
2024-04-30T15:46:22.148Z,100680.59
2024-04-30T15:48:51.232Z,100677.03
2024-04-30T15:51:21.026Z,100669.53
2024-04-30T15:53:47.982Z,100668.19
2024-04-30T15:56:20.689Z,100667.75
2024-04-30T15:58:49.127Z,100669.28
2024-04-30T16:01:19.029Z,100666.22
2024-04-30T16:03:46.232Z,100664.97
2024-04-30T16:06:17.199Z,100661.28
2024-04-30T16:08:44.176Z,100658.44
2024-04-30T16:11:14.177Z,100664.63
2024-04-30T16:13:44.160Z,100660.13
2024-04-30T16:16:18.408Z,100661.53
2024-04-30T16:18:47.589Z,100653.31
2024-04-30T16:21:18.223Z,100647.44
2024-04-30T16:23:45.209Z,100659.75
2024-04-30T16:26:15.014Z,100653.56
2024-04-30T16:28:45.207Z,100658.25
2024-04-30T16:31:16.507Z,100657.66
2024-04-30T16:33:43.806Z,100655.47
2024-04-30T16:36:22.904Z,100661.28
2024-04-30T16:38:51.359Z,100651.63
2024-04-30T16:41:20.957Z,100656.78
2024-04-30T16:43:51.891Z,100656.19
2024-04-30T16:46:21.672Z,100645.91
2024-04-30T16:48:48.725Z,100637.53
2024-04-30T16:51:18.448Z,100637.81
2024-04-30T16:53:45.627Z,100645.75
2024-04-30T16:56:15.564Z,100637.44
2024-04-30T16:58:42.853Z,100627.84
2024-04-30T17:01:15.440Z,100633.84
2024-04-30T17:03:42.628Z,100630.00
2024-04-30T17:06:12.862Z,100626.75
2024-04-30T17:08:40.050Z,100628.91
2024-04-30T17:11:10.752Z,100626.84
2024-04-30T17:13:41.716Z,100629.34
2024-04-30T17:16:21.908Z,100621.25
2024-04-30T17:18:50.367Z,100616.47
2024-04-30T17:21:20.680Z,100615.88
2024-04-30T17:23:48.580Z,100614.84
2024-04-30T17:26:23.987Z,100614.00
2024-04-30T17:28:55.944Z,100610.84
2024-04-30T17:31:25.617Z,100608.97
2024-04-30T17:33:57.088Z,100602.34
2024-04-30T17:36:24.546Z,100603.19
2024-04-30T17:38:54.396Z,100608.22
2024-04-30T17:41:25.584Z,100602.03
2024-04-30T17:43:55.584Z,100602.13
2024-04-30T17:46:27.335Z,100605.00
2024-04-30T17:48:57.854Z,100600.22
2024-04-30T17:51:28.347Z,100602.88
2024-04-30T17:53:55.598Z,100600.56
2024-04-30T17:56:25.337Z,100604.25
2024-04-30T17:58:52.329Z,100605.44
2024-04-30T18:01:22.502Z,100603.94
2024-04-30T18:03:51.087Z,100606.19
2024-04-30T18:06:23.580Z,100608.19
2024-04-30T18:08:57.571Z,100598.31
2024-04-30T18:11:28.692Z,100597.16
2024-04-30T18:13:59.361Z,100599.97
2024-04-30T18:16:27.400Z,100592.16
2024-04-30T18:18:57.433Z,100603.84
2024-04-30T18:21:35.268Z,100608.06
2024-04-30T18:24:07.352Z,100600.28
2024-04-30T18:26:39.176Z,100600.34
2024-04-30T18:29:08.844Z,100601.03
2024-04-30T18:31:36.132Z,100602.13
2024-04-30T18:34:06.277Z,100597.66
2024-04-30T18:36:39.356Z,100601.00
2024-04-30T18:39:13.780Z,100605.78
2024-04-30T18:41:41.460Z,100602.28
2024-04-30T18:44:11.451Z,100596.69
2024-04-30T18:46:38.447Z,100594.88
2024-04-30T18:49:08.406Z,100590.34
2024-04-30T18:51:43.838Z,100596.56
2024-04-30T18:54:10.926Z,100592.88
2024-04-30T18:56:42.510Z,100599.69
2024-04-30T18:59:09.812Z,100593.44
2024-04-30T19:01:40.250Z,100588.06
2024-04-30T19:04:07.366Z,100594.84
2024-04-30T19:06:37.308Z,100591.97
2024-04-30T19:09:07.020Z,100589.44
2024-04-30T19:11:36.885Z,100592.97
2024-04-30T19:14:04.000Z,100601.84
2024-04-30T19:16:33.662Z,100597.69
2024-04-30T19:19:00.755Z,100593.09
2024-04-30T19:21:30.442Z,100585.81
2024-04-30T19:23:57.813Z,100591.00
2024-04-30T19:26:30.162Z,100584.56
2024-04-30T19:28:57.260Z,100594.25
2024-04-30T19:31:26.862Z,100579.16
2024-04-30T19:33:54.269Z,100588.63
2024-04-30T19:36:26.607Z,100588.78
2024-04-30T19:38:53.673Z,100583.81
2024-04-30T19:41:23.922Z,100584.81
2024-04-30T19:43:54.115Z,100578.38
2024-04-30T19:46:23.910Z,100583.88
2024-04-30T19:48:52.664Z,100581.19
2024-04-30T19:51:23.310Z,100585.47
2024-04-30T19:53:51.213Z,100580.22
2024-04-30T19:56:22.053Z,100584.78
2024-04-30T19:58:55.614Z,100576.47
2024-04-30T20:01:30.038Z,100570.25
2024-04-30T20:04:02.597Z,100572.03
2024-04-30T20:06:29.717Z,100574.88
2024-04-30T20:09:02.878Z,100572.94
2024-04-30T20:11:32.783Z,100577.44
2024-04-30T20:14:02.550Z,100573.88
2024-04-30T20:16:34.931Z,100574.63
2024-04-30T20:19:01.953Z,100566.56
2024-04-30T20:21:31.810Z,100563.81
2024-04-30T20:23:58.815Z,100559.44
2024-04-30T20:26:28.462Z,100549.84
2024-04-30T20:28:55.672Z,100551.44
2024-04-30T20:31:26.488Z,100541.47
2024-04-30T20:33:57.090Z,100546.19
2024-04-30T20:36:26.818Z,100538.28
2024-04-30T20:38:54.033Z,100535.72
2024-04-30T20:41:23.719Z,100542.47
2024-04-30T20:43:50.839Z,100542.03
2024-04-30T20:46:21.699Z,100547.75
2024-04-30T20:51:21.205Z,100535.03
2024-04-30T20:53:48.334Z,100529.25
2024-04-30T20:56:17.934Z,100529.44
2024-04-30T20:58:44.890Z,100526.50
2024-04-30T21:01:16.516Z,100534.25
2024-04-30T21:03:44.052Z,100528.00
2024-04-30T21:06:13.763Z,100521.38
2024-04-30T21:08:43.799Z,100515.53
2024-04-30T21:11:17.063Z,100520.72
2024-04-30T21:13:43.930Z,100525.63
2024-04-30T21:16:13.566Z,100519.31
2024-04-30T21:18:40.825Z,100509.34
2024-04-30T21:21:10.636Z,100507.25
2024-04-30T21:23:39.742Z,100503.28
2024-04-30T21:26:13.723Z,100505.69
2024-04-30T21:28:41.316Z,100503.75
2024-04-30T21:31:10.962Z,100499.97
2024-04-30T21:33:41.162Z,100495.56
2024-04-30T21:36:11.843Z,100496.94
2024-04-30T21:38:41.665Z,100495.00
2024-04-30T21:41:11.557Z,100490.84
2024-04-30T21:43:41.225Z,100489.53
2024-04-30T21:46:08.705Z,100488.25
2024-04-30T21:48:41.525Z,100486.78
2024-04-30T21:51:08.915Z,100485.13
2024-04-30T21:53:40.487Z,100484.47
2024-04-30T21:56:10.642Z,100481.34
2024-04-30T21:58:40.358Z,100479.41
2024-04-30T22:01:10.664Z,100473.59
2024-04-30T22:03:42.700Z,100479.31
2024-04-30T22:06:09.770Z,100474.53
2024-04-30T22:08:41.904Z,100465.38
2024-04-30T22:11:11.758Z,100470.91
2024-04-30T22:13:41.505Z,100456.41
2024-04-30T22:16:08.869Z,100458.44
2024-04-30T22:18:39.368Z,100454.44
2024-04-30T22:21:10.738Z,100452.16
2024-04-30T22:23:40.494Z,100447.97
2024-04-30T22:26:07.795Z,100445.22
2024-04-30T22:28:40.274Z,100448.44
2024-04-30T22:31:07.555Z,100432.97
2024-04-30T22:33:37.546Z,100441.16
2024-04-30T22:36:05.607Z,100434.69
2024-04-30T22:38:35.339Z,100441.56
2024-04-30T22:41:02.406Z,100440.09
2024-04-30T22:43:31.826Z,100438.44
2024-04-30T22:46:01.628Z,100428.47
2024-04-30T22:48:31.434Z,100432.50
2024-04-30T22:50:58.794Z,100430.53
2024-04-30T22:53:30.596Z,100423.25
2024-04-30T22:55:59.774Z,100425.63
2024-04-30T22:58:29.652Z,100419.81
2024-04-30T23:00:56.821Z,100416.50
2024-04-30T23:03:29.205Z,100422.19
2024-04-30T23:05:56.390Z,100424.38
2024-04-30T23:08:26.087Z,100413.06
2024-04-30T23:10:53.166Z,100422.25
2024-04-30T23:13:22.579Z,100420.56
2024-04-30T23:15:49.827Z,100416.44
2024-04-30T23:18:19.734Z,100413.78
2024-04-30T23:20:49.440Z,100417.44
2024-04-30T23:23:19.092Z,100407.94
2024-04-30T23:25:46.325Z,100414.44
2024-04-30T23:28:16.167Z,100407.81
2024-04-30T23:30:43.147Z,100412.47
2024-04-30T23:33:13.231Z,100417.13
2024-04-30T23:35:40.377Z,100407.66
2024-04-30T23:38:12.432Z,100408.66
2024-04-30T23:40:39.372Z,100406.53
2024-04-30T23:43:09.146Z,100402.19
2024-04-30T23:45:36.200Z,100404.56
2024-04-30T23:48:05.898Z,100405.91
2024-04-30T23:50:32.879Z,100407.94
2024-04-30T23:53:02.536Z,100413.44
2024-04-30T23:55:32.104Z,100414.28
2024-04-30T23:58:01.711Z,100416.56
